sensor_id;sensor_type;location;lat;lon;timestamp;P1;durP1;ratioP1;P2;durP2;ratioP2
54261;SDS011;40174;52.364;6.452;2023-07-31T00:02:24;2.22;;;0.60;;
54261;SDS011;40174;52.364;6.452;2023-07-31T00:04:51;2.55;;;0.90;;
54261;SDS011;40174;52.364;6.452;2023-07-31T00:07:17;2.90;;;0.68;;
54261;SDS011;40174;52.364;6.452;2023-07-31T00:09:45;2.13;;;0.70;;
54261;SDS011;40174;52.364;6.452;2023-07-31T00:12:12;3.00;;;0.80;;
54261;SDS011;40174;52.364;6.452;2023-07-31T00:14:39;3.10;;;0.93;;
54261;SDS011;40174;52.364;6.452;2023-07-31T00:17:05;0.95;;;0.60;;
54261;SDS011;40174;52.364;6.452;2023-07-31T00:19:32;3.25;;;0.70;;
54261;SDS011;40174;52.364;6.452;2023-07-31T00:21:59;1.88;;;0.60;;
54261;SDS011;40174;52.364;6.452;2023-07-31T00:24:25;2.28;;;0.80;;
54261;SDS011;40174;52.364;6.452;2023-07-31T00:26:54;1.23;;;0.57;;
54261;SDS011;40174;52.364;6.452;2023-07-31T00:29:20;1.05;;;0.50;;
54261;SDS011;40174;52.364;6.452;2023-07-31T00:31:47;1.08;;;0.43;;
54261;SDS011;40174;52.364;6.452;2023-07-31T00:34:14;1.73;;;0.60;;
54261;SDS011;40174;52.364;6.452;2023-07-31T00:36:40;1.20;;;0.40;;
54261;SDS011;40174;52.364;6.452;2023-07-31T00:39:07;0.85;;;0.40;;
54261;SDS011;40174;52.364;6.452;2023-07-31T00:41:34;1.63;;;0.45;;
54261;SDS011;40174;52.364;6.452;2023-07-31T00:44:02;2.50;;;0.77;;
54261;SDS011;40174;52.364;6.452;2023-07-31T00:46:29;1.65;;;0.40;;
54261;SDS011;40174;52.364;6.452;2023-07-31T00:48:56;0.88;;;0.43;;
54261;SDS011;40174;52.364;6.452;2023-07-31T00:51:24;0.70;;;0.30;;
54261;SDS011;40174;52.364;6.452;2023-07-31T00:53:51;0.45;;;0.43;;
54261;SDS011;40174;52.364;6.452;2023-07-31T00:56:21;0.32;;;0.22;;
54261;SDS011;40174;52.364;6.452;2023-07-31T00:58:48;0.85;;;0.40;;
54261;SDS011;40174;52.364;6.452;2023-07-31T01:01:16;0.95;;;0.40;;
54261;SDS011;40174;52.364;6.452;2023-07-31T01:03:43;0.90;;;0.40;;
54261;SDS011;40174;52.364;6.452;2023-07-31T01:06:12;1.55;;;0.38;;
54261;SDS011;40174;52.364;6.452;2023-07-31T01:08:44;1.55;;;0.55;;
54261;SDS011;40174;52.364;6.452;2023-07-31T01:11:21;0.80;;;0.32;;
54261;SDS011;40174;52.364;6.452;2023-07-31T01:13:53;0.60;;;0.30;;
54261;SDS011;40174;52.364;6.452;2023-07-31T01:16:22;2.05;;;0.50;;
54261;SDS011;40174;52.364;6.452;2023-07-31T01:18:49;0.80;;;0.30;;
54261;SDS011;40174;52.364;6.452;2023-07-31T01:21:23;0.90;;;0.50;;
54261;SDS011;40174;52.364;6.452;2023-07-31T01:24:08;1.00;;;0.32;;
54261;SDS011;40174;52.364;6.452;2023-07-31T01:26:49;0.47;;;0.40;;
54261;SDS011;40174;52.364;6.452;2023-07-31T01:29:23;2.13;;;0.50;;
54261;SDS011;40174;52.364;6.452;2023-07-31T01:31:56;1.10;;;0.30;;
54261;SDS011;40174;52.364;6.452;2023-07-31T01:34:27;2.05;;;0.60;;
54261;SDS011;40174;52.364;6.452;2023-07-31T01:36:55;0.73;;;0.30;;
54261;SDS011;40174;52.364;6.452;2023-07-31T01:39:22;0.88;;;0.40;;
54261;SDS011;40174;52.364;6.452;2023-07-31T01:41:50;2.13;;;0.70;;
54261;SDS011;40174;52.364;6.452;2023-07-31T01:44:17;1.25;;;0.30;;
54261;SDS011;40174;52.364;6.452;2023-07-31T01:46:44;0.98;;;0.38;;
54261;SDS011;40174;52.364;6.452;2023-07-31T01:49:10;0.40;;;0.30;;
54261;SDS011;40174;52.364;6.452;2023-07-31T01:51:37;0.75;;;0.30;;
54261;SDS011;40174;52.364;6.452;2023-07-31T01:54:04;0.90;;;0.30;;
54261;SDS011;40174;52.364;6.452;2023-07-31T01:56:30;0.70;;;0.32;;
54261;SDS011;40174;52.364;6.452;2023-07-31T01:58:59;0.85;;;0.30;;
54261;SDS011;40174;52.364;6.452;2023-07-31T02:01:26;0.30;;;0.30;;
54261;SDS011;40174;52.364;6.452;2023-07-31T02:03:52;1.30;;;0.40;;
54261;SDS011;40174;52.364;6.452;2023-07-31T02:06:21;0.28;;;0.20;;
54261;SDS011;40174;52.364;6.452;2023-07-31T02:08:48;0.65;;;0.32;;
54261;SDS011;40174;52.364;6.452;2023-07-31T02:11:15;1.27;;;0.50;;
54261;SDS011;40174;52.364;6.452;2023-07-31T02:13:42;1.35;;;0.63;;
54261;SDS011;40174;52.364;6.452;2023-07-31T02:16:10;2.22;;;0.40;;
54261;SDS011;40174;52.364;6.452;2023-07-31T02:18:36;1.55;;;0.40;;
54261;SDS011;40174;52.364;6.452;2023-07-31T02:21:03;0.57;;;0.40;;
54261;SDS011;40174;52.364;6.452;2023-07-31T02:23:30;1.00;;;0.35;;
54261;SDS011;40174;52.364;6.452;2023-07-31T02:25:56;2.10;;;0.30;;
54261;SDS011;40174;52.364;6.452;2023-07-31T02:28:24;0.82;;;0.30;;
54261;SDS011;40174;52.364;6.452;2023-07-31T02:30:51;0.63;;;0.40;;
54261;SDS011;40174;52.364;6.452;2023-07-31T02:33:19;1.20;;;0.55;;
54261;SDS011;40174;52.364;6.452;2023-07-31T02:35:46;1.50;;;0.38;;
54261;SDS011;40174;52.364;6.452;2023-07-31T02:38:13;1.02;;;0.60;;
54261;SDS011;40174;52.364;6.452;2023-07-31T02:40:40;0.55;;;0.43;;
54261;SDS011;40174;52.364;6.452;2023-07-31T02:43:07;1.27;;;0.50;;
54261;SDS011;40174;52.364;6.452;2023-07-31T02:45:34;1.30;;;0.32;;
54261;SDS011;40174;52.364;6.452;2023-07-31T02:48:00;2.10;;;0.55;;
54261;SDS011;40174;52.364;6.452;2023-07-31T02:50:28;1.17;;;0.43;;
54261;SDS011;40174;52.364;6.452;2023-07-31T02:52:55;1.65;;;0.63;;
54261;SDS011;40174;52.364;6.452;2023-07-31T02:55:22;1.45;;;0.85;;
54261;SDS011;40174;52.364;6.452;2023-07-31T02:57:48;1.73;;;0.93;;
54261;SDS011;40174;52.364;6.452;2023-07-31T03:00:17;1.95;;;0.52;;
54261;SDS011;40174;52.364;6.452;2023-07-31T03:02:44;1.95;;;0.80;;
54261;SDS011;40174;52.364;6.452;2023-07-31T03:05:10;2.88;;;0.88;;
54261;SDS011;40174;52.364;6.452;2023-07-31T03:07:38;1.67;;;0.80;;
54261;SDS011;40174;52.364;6.452;2023-07-31T03:10:06;2.00;;;0.80;;
54261;SDS011;40174;52.364;6.452;2023-07-31T03:12:33;1.27;;;0.70;;
54261;SDS011;40174;52.364;6.452;2023-07-31T03:15:00;2.28;;;0.80;;
54261;SDS011;40174;52.364;6.452;2023-07-31T03:17:27;3.45;;;0.98;;
54261;SDS011;40174;52.364;6.452;2023-07-31T03:19:54;3.35;;;1.10;;
54261;SDS011;40174;52.364;6.452;2023-07-31T03:22:20;4.95;;;0.63;;
54261;SDS011;40174;52.364;6.452;2023-07-31T03:24:48;4.78;;;1.48;;
54261;SDS011;40174;52.364;6.452;2023-07-31T03:27:15;1.55;;;0.80;;
54261;SDS011;40174;52.364;6.452;2023-07-31T03:29:42;2.72;;;0.93;;
54261;SDS011;40174;52.364;6.452;2023-07-31T03:32:09;2.33;;;0.88;;
54261;SDS011;40174;52.364;6.452;2023-07-31T03:34:35;3.13;;;1.10;;
54261;SDS011;40174;52.364;6.452;2023-07-31T03:37:05;3.75;;;1.10;;
54261;SDS011;40174;52.364;6.452;2023-07-31T03:39:32;6.78;;;1.40;;
54261;SDS011;40174;52.364;6.452;2023-07-31T03:42:00;2.33;;;1.20;;
54261;SDS011;40174;52.364;6.452;2023-07-31T03:44:28;4.88;;;1.27;;
54261;SDS011;40174;52.364;6.452;2023-07-31T03:46:55;4.10;;;1.30;;
54261;SDS011;40174;52.364;6.452;2023-07-31T03:49:21;8.02;;;2.20;;
54261;SDS011;40174;52.364;6.452;2023-07-31T03:51:48;5.07;;;1.70;;
54261;SDS011;40174;52.364;6.452;2023-07-31T03:54:15;8.57;;;1.55;;
54261;SDS011;40174;52.364;6.452;2023-07-31T03:56:42;6.22;;;2.15;;
54261;SDS011;40174;52.364;6.452;2023-07-31T03:59:10;6.22;;;2.30;;
54261;SDS011;40174;52.364;6.452;2023-07-31T04:01:37;5.07;;;2.08;;
54261;SDS011;40174;52.364;6.452;2023-07-31T04:04:03;10.32;;;2.38;;
54261;SDS011;40174;52.364;6.452;2023-07-31T04:06:30;6.28;;;2.03;;
54261;SDS011;40174;52.364;6.452;2023-07-31T04:08:57;6.95;;;2.13;;
54261;SDS011;40174;52.364;6.452;2023-07-31T04:11:23;9.77;;;2.55;;
54261;SDS011;40174;52.364;6.452;2023-07-31T04:13:50;8.20;;;2.47;;
54261;SDS011;40174;52.364;6.452;2023-07-31T04:16:18;6.57;;;3.08;;
54261;SDS011;40174;52.364;6.452;2023-07-31T04:18:44;12.80;;;2.90;;
54261;SDS011;40174;52.364;6.452;2023-07-31T04:21:11;11.43;;;2.38;;
54261;SDS011;40174;52.364;6.452;2023-07-31T04:23:38;10.02;;;2.83;;
54261;SDS011;40174;52.364;6.452;2023-07-31T04:26:04;5.93;;;2.15;;
54261;SDS011;40174;52.364;6.452;2023-07-31T04:28:31;9.07;;;2.63;;
54261;SDS011;40174;52.364;6.452;2023-07-31T04:30:58;12.95;;;3.00;;
54261;SDS011;40174;52.364;6.452;2023-07-31T04:33:26;13.05;;;3.13;;
54261;SDS011;40174;52.364;6.452;2023-07-31T04:35:53;10.18;;;3.05;;
54261;SDS011;40174;52.364;6.452;2023-07-31T04:38:20;9.23;;;2.65;;
54261;SDS011;40174;52.364;6.452;2023-07-31T04:40:47;11.15;;;2.78;;
54261;SDS011;40174;52.364;6.452;2023-07-31T04:43:14;10.48;;;2.65;;
54261;SDS011;40174;52.364;6.452;2023-07-31T04:45:42;9.40;;;2.67;;
54261;SDS011;40174;52.364;6.452;2023-07-31T04:48:11;16.92;;;3.22;;
54261;SDS011;40174;52.364;6.452;2023-07-31T04:50:39;10.65;;;2.65;;
54261;SDS011;40174;52.364;6.452;2023-07-31T04:53:06;8.13;;;3.13;;
54261;SDS011;40174;52.364;6.452;2023-07-31T04:55:32;11.85;;;3.50;;
54261;SDS011;40174;52.364;6.452;2023-07-31T04:57:59;12.65;;;3.50;;
54261;SDS011;40174;52.364;6.452;2023-07-31T05:00:25;13.13;;;3.08;;
54261;SDS011;40174;52.364;6.452;2023-07-31T05:02:52;12.38;;;3.53;;
54261;SDS011;40174;52.364;6.452;2023-07-31T05:05:19;11.95;;;3.50;;
54261;SDS011;40174;52.364;6.452;2023-07-31T05:07:47;13.05;;;2.67;;
54261;SDS011;40174;52.364;6.452;2023-07-31T05:10:14;12.15;;;3.30;;
54261;SDS011;40174;52.364;6.452;2023-07-31T05:12:40;9.35;;;2.80;;
54261;SDS011;40174;52.364;6.452;2023-07-31T05:15:07;7.88;;;2.83;;
54261;SDS011;40174;52.364;6.452;2023-07-31T05:17:35;13.73;;;3.03;;
54261;SDS011;40174;52.364;6.452;2023-07-31T05:20:01;13.48;;;3.85;;
54261;SDS011;40174;52.364;6.452;2023-07-31T05:22:28;13.70;;;3.28;;
54261;SDS011;40174;52.364;6.452;2023-07-31T05:24:56;10.32;;;3.38;;
54261;SDS011;40174;52.364;6.452;2023-07-31T05:27:23;7.05;;;2.50;;
54261;SDS011;40174;52.364;6.452;2023-07-31T05:29:49;9.15;;;3.00;;
54261;SDS011;40174;52.364;6.452;2023-07-31T05:32:16;12.38;;;3.05;;
54261;SDS011;40174;52.364;6.452;2023-07-31T05:34:43;8.85;;;2.50;;
54261;SDS011;40174;52.364;6.452;2023-07-31T05:37:09;14.95;;;3.20;;
54261;SDS011;40174;52.364;6.452;2023-07-31T05:39:36;13.73;;;3.15;;
54261;SDS011;40174;52.364;6.452;2023-07-31T05:42:05;18.73;;;3.33;;
54261;SDS011;40174;52.364;6.452;2023-07-31T05:44:31;11.27;;;2.63;;
54261;SDS011;40174;52.364;6.452;2023-07-31T05:46:58;16.85;;;3.17;;
54261;SDS011;40174;52.364;6.452;2023-07-31T05:49:25;9.20;;;2.72;;
54261;SDS011;40174;52.364;6.452;2023-07-31T05:51:51;8.25;;;2.88;;
54261;SDS011;40174;52.364;6.452;2023-07-31T05:54:18;9.35;;;2.72;;
54261;SDS011;40174;52.364;6.452;2023-07-31T05:56:45;10.13;;;2.90;;
54261;SDS011;40174;52.364;6.452;2023-07-31T05:59:13;10.60;;;2.90;;
54261;SDS011;40174;52.364;6.452;2023-07-31T06:01:40;18.45;;;3.55;;
54261;SDS011;40174;52.364;6.452;2023-07-31T06:04:06;12.65;;;2.65;;
54261;SDS011;40174;52.364;6.452;2023-07-31T06:06:33;13.85;;;3.03;;
54261;SDS011;40174;52.364;6.452;2023-07-31T06:09:00;11.68;;;2.33;;
54261;SDS011;40174;52.364;6.452;2023-07-31T06:11:28;13.50;;;3.15;;
54261;SDS011;40174;52.364;6.452;2023-07-31T06:13:55;7.20;;;2.63;;
54261;SDS011;40174;52.364;6.452;2023-07-31T06:16:23;13.57;;;2.78;;
54261;SDS011;40174;52.364;6.452;2023-07-31T06:18:50;7.03;;;2.70;;
54261;SDS011;40174;52.364;6.452;2023-07-31T06:21:16;8.75;;;2.42;;
54261;SDS011;40174;52.364;6.452;2023-07-31T06:23:43;9.63;;;2.53;;
54261;SDS011;40174;52.364;6.452;2023-07-31T06:26:10;9.00;;;3.55;;
54261;SDS011;40174;52.364;6.452;2023-07-31T06:28:37;8.63;;;2.88;;
54261;SDS011;40174;52.364;6.452;2023-07-31T06:31:03;8.10;;;2.53;;
54261;SDS011;40174;52.364;6.452;2023-07-31T06:33:31;12.93;;;3.40;;
54261;SDS011;40174;52.364;6.452;2023-07-31T06:35:58;9.20;;;2.60;;
54261;SDS011;40174;52.364;6.452;2023-07-31T06:38:25;6.72;;;2.88;;
54261;SDS011;40174;52.364;6.452;2023-07-31T06:40:52;12.80;;;3.00;;
54261;SDS011;40174;52.364;6.452;2023-07-31T06:43:19;11.48;;;2.65;;
54261;SDS011;40174;52.364;6.452;2023-07-31T06:45:46;7.68;;;2.60;;
54261;SDS011;40174;52.364;6.452;2023-07-31T06:48:15;9.70;;;2.45;;
54261;SDS011;40174;52.364;6.452;2023-07-31T06:50:43;7.47;;;2.40;;
54261;SDS011;40174;52.364;6.452;2023-07-31T06:53:10;5.65;;;2.03;;
54261;SDS011;40174;52.364;6.452;2023-07-31T06:55:36;8.43;;;2.25;;
54261;SDS011;40174;52.364;6.452;2023-07-31T06:58:03;11.82;;;2.47;;
54261;SDS011;40174;52.364;6.452;2023-07-31T07:00:30;8.60;;;2.17;;
54261;SDS011;40174;52.364;6.452;2023-07-31T07:02:57;7.25;;;2.15;;
54261;SDS011;40174;52.364;6.452;2023-07-31T07:05:24;9.10;;;1.92;;
54261;SDS011;40174;52.364;6.452;2023-07-31T07:07:52;7.57;;;1.90;;
54261;SDS011;40174;52.364;6.452;2023-07-31T07:10:19;5.72;;;1.60;;
54261;SDS011;40174;52.364;6.452;2023-07-31T07:12:46;3.63;;;1.50;;
54261;SDS011;40174;52.364;6.452;2023-07-31T07:15:12;6.65;;;1.63;;
54261;SDS011;40174;52.364;6.452;2023-07-31T07:17:39;10.15;;;2.15;;
54261;SDS011;40174;52.364;6.452;2023-07-31T07:20:06;3.13;;;1.30;;
54261;SDS011;40174;52.364;6.452;2023-07-31T07:22:34;7.95;;;1.98;;
54261;SDS011;40174;52.364;6.452;2023-07-31T07:25:02;3.53;;;1.38;;
54261;SDS011;40174;52.364;6.452;2023-07-31T07:27:29;3.75;;;1.20;;
54261;SDS011;40174;52.364;6.452;2023-07-31T07:29:56;5.65;;;2.08;;
54261;SDS011;40174;52.364;6.452;2023-07-31T07:32:23;6.75;;;1.42;;
54261;SDS011;40174;52.364;6.452;2023-07-31T07:34:49;3.70;;;1.50;;
54261;SDS011;40174;52.364;6.452;2023-07-31T07:37:16;5.35;;;1.60;;
54261;SDS011;40174;52.364;6.452;2023-07-31T07:39:46;4.00;;;1.20;;
54261;SDS011;40174;52.364;6.452;2023-07-31T07:42:14;5.35;;;1.77;;
54261;SDS011;40174;52.364;6.452;2023-07-31T07:44:40;3.42;;;1.20;;
54261;SDS011;40174;52.364;6.452;2023-07-31T07:47:07;4.10;;;1.42;;
54261;SDS011;40174;52.364;6.452;2023-07-31T07:49:34;4.43;;;1.27;;
54261;SDS011;40174;52.364;6.452;2023-07-31T07:52:01;3.17;;;0.77;;
54261;SDS011;40174;52.364;6.452;2023-07-31T07:54:28;3.22;;;1.10;;
54261;SDS011;40174;52.364;6.452;2023-07-31T07:56:56;4.90;;;1.08;;
54261;SDS011;40174;52.364;6.452;2023-07-31T07:59:24;1.98;;;0.90;;
54261;SDS011;40174;52.364;6.452;2023-07-31T08:01:50;2.80;;;0.85;;
54261;SDS011;40174;52.364;6.452;2023-07-31T08:04:17;3.22;;;1.00;;
54261;SDS011;40174;52.364;6.452;2023-07-31T08:06:43;2.00;;;0.80;;
54261;SDS011;40174;52.364;6.452;2023-07-31T08:09:10;2.72;;;0.95;;
54261;SDS011;40174;52.364;6.452;2023-07-31T08:11:37;2.42;;;1.02;;
54261;SDS011;40174;52.364;6.452;2023-07-31T08:14:03;3.30;;;1.02;;
54261;SDS011;40174;52.364;6.452;2023-07-31T08:16:31;0.73;;;0.50;;
54261;SDS011;40174;52.364;6.452;2023-07-31T08:18:58;3.08;;;1.02;;
54261;SDS011;40174;52.364;6.452;2023-07-31T08:21:25;2.28;;;0.77;;
54261;SDS011;40174;52.364;6.452;2023-07-31T08:23:51;1.30;;;0.80;;
54261;SDS011;40174;52.364;6.452;2023-07-31T08:26:18;2.15;;;0.60;;
54261;SDS011;40174;52.364;6.452;2023-07-31T08:28:46;1.80;;;0.60;;
54261;SDS011;40174;52.364;6.452;2023-07-31T08:31:13;1.70;;;0.77;;
54261;SDS011;40174;52.364;6.452;2023-07-31T08:33:40;0.65;;;0.40;;
54261;SDS011;40174;52.364;6.452;2023-07-31T08:36:07;1.73;;;0.52;;
54261;SDS011;40174;52.364;6.452;2023-07-31T08:38:34;1.42;;;0.63;;
54261;SDS011;40174;52.364;6.452;2023-07-31T08:41:02;1.58;;;0.45;;
54261;SDS011;40174;52.364;6.452;2023-07-31T08:43:29;0.80;;;0.50;;
54261;SDS011;40174;52.364;6.452;2023-07-31T08:45:56;1.92;;;0.70;;
54261;SDS011;40174;52.364;6.452;2023-07-31T08:48:23;1.75;;;0.40;;
54261;SDS011;40174;52.364;6.452;2023-07-31T08:50:52;1.45;;;0.60;;
54261;SDS011;40174;52.364;6.452;2023-07-31T08:53:19;1.30;;;0.40;;
54261;SDS011;40174;52.364;6.452;2023-07-31T08:55:46;0.40;;;0.30;;
54261;SDS011;40174;52.364;6.452;2023-07-31T08:58:14;0.77;;;0.40;;
54261;SDS011;40174;52.364;6.452;2023-07-31T09:00:43;1.40;;;0.55;;
54261;SDS011;40174;52.364;6.452;2023-07-31T09:03:13;1.65;;;0.47;;
54261;SDS011;40174;52.364;6.452;2023-07-31T09:05:42;0.30;;;0.30;;
54261;SDS011;40174;52.364;6.452;2023-07-31T09:08:12;0.73;;;0.35;;
54261;SDS011;40174;52.364;6.452;2023-07-31T09:10:40;1.05;;;0.60;;
54261;SDS011;40174;52.364;6.452;2023-07-31T09:13:08;1.00;;;0.30;;
54261;SDS011;40174;52.364;6.452;2023-07-31T09:15:35;0.70;;;0.50;;
54261;SDS011;40174;52.364;6.452;2023-07-31T09:18:02;1.55;;;0.30;;
54261;SDS011;40174;52.364;6.452;2023-07-31T09:20:30;0.40;;;0.35;;
54261;SDS011;40174;52.364;6.452;2023-07-31T09:23:04;0.57;;;0.30;;
54261;SDS011;40174;52.364;6.452;2023-07-31T09:25:34;0.83;;;0.43;;
54261;SDS011;40174;52.364;6.452;2023-07-31T09:28:01;1.30;;;0.50;;
54261;SDS011;40174;52.364;6.452;2023-07-31T09:30:30;0.68;;;0.40;;
54261;SDS011;40174;52.364;6.452;2023-07-31T09:33:00;1.23;;;0.50;;
54261;SDS011;40174;52.364;6.452;2023-07-31T09:35:29;0.88;;;0.50;;
54261;SDS011;40174;52.364;6.452;2023-07-31T09:37:57;0.52;;;0.35;;
54261;SDS011;40174;52.364;6.452;2023-07-31T09:40:26;1.80;;;0.63;;
54261;SDS011;40174;52.364;6.452;2023-07-31T09:42:57;5.07;;;0.50;;
54261;SDS011;40174;52.364;6.452;2023-07-31T09:45:25;1.20;;;0.57;;
54261;SDS011;40174;52.364;6.452;2023-07-31T09:47:53;0.80;;;0.52;;
54261;SDS011;40174;52.364;6.452;2023-07-31T09:50:20;0.90;;;0.43;;
54261;SDS011;40174;52.364;6.452;2023-07-31T09:52:48;0.63;;;0.47;;
54261;SDS011;40174;52.364;6.452;2023-07-31T09:55:15;0.70;;;0.52;;
54261;SDS011;40174;52.364;6.452;2023-07-31T09:57:44;1.55;;;0.85;;
54261;SDS011;40174;52.364;6.452;2023-07-31T10:00:14;1.90;;;0.60;;
54261;SDS011;40174;52.364;6.452;2023-07-31T10:02:44;2.00;;;0.80;;
54261;SDS011;40174;52.364;6.452;2023-07-31T10:05:12;3.70;;;0.88;;
54261;SDS011;40174;52.364;6.452;2023-07-31T10:07:40;2.28;;;0.70;;
54261;SDS011;40174;52.364;6.452;2023-07-31T10:10:09;1.88;;;0.90;;
54261;SDS011;40174;52.364;6.452;2023-07-31T10:12:36;1.85;;;0.80;;
54261;SDS011;40174;52.364;6.452;2023-07-31T10:15:04;1.38;;;0.60;;
54261;SDS011;40174;52.364;6.452;2023-07-31T10:17:33;1.55;;;0.80;;
54261;SDS011;40174;52.364;6.452;2023-07-31T10:20:02;1.60;;;0.73;;
54261;SDS011;40174;52.364;6.452;2023-07-31T10:22:30;1.08;;;0.70;;
54261;SDS011;40174;52.364;6.452;2023-07-31T10:24:57;1.20;;;0.60;;
54261;SDS011;40174;52.364;6.452;2023-07-31T10:27:24;4.85;;;0.63;;
54261;SDS011;40174;52.364;6.452;2023-07-31T10:29:51;0.73;;;0.45;;
54261;SDS011;40174;52.364;6.452;2023-07-31T10:32:20;1.95;;;0.88;;
54261;SDS011;40174;52.364;6.452;2023-07-31T10:34:50;1.75;;;0.85;;
54261;SDS011;40174;52.364;6.452;2023-07-31T10:37:24;2.38;;;0.90;;
54261;SDS011;40174;52.364;6.452;2023-07-31T10:39:55;0.60;;;0.60;;
54261;SDS011;40174;52.364;6.452;2023-07-31T10:42:27;1.13;;;0.77;;
54261;SDS011;40174;52.364;6.452;2023-07-31T10:44:56;2.30;;;0.90;;
54261;SDS011;40174;52.364;6.452;2023-07-31T10:47:24;1.33;;;0.73;;
54261;SDS011;40174;52.364;6.452;2023-07-31T10:49:52;1.38;;;0.65;;
54261;SDS011;40174;52.364;6.452;2023-07-31T10:52:20;2.58;;;1.20;;
54261;SDS011;40174;52.364;6.452;2023-07-31T10:54:59;1.63;;;0.70;;
54261;SDS011;40174;52.364;6.452;2023-07-31T10:57:40;1.95;;;0.93;;
54261;SDS011;40174;52.364;6.452;2023-07-31T11:00:24;3.67;;;1.33;;
54261;SDS011;40174;52.364;6.452;2023-07-31T11:02:56;2.05;;;1.15;;
54261;SDS011;40174;52.364;6.452;2023-07-31T11:05:44;5.65;;;1.55;;
54261;SDS011;40174;52.364;6.452;2023-07-31T11:08:13;3.30;;;1.27;;
54261;SDS011;40174;52.364;6.452;2023-07-31T11:10:41;3.53;;;1.55;;
54261;SDS011;40174;52.364;6.452;2023-07-31T11:13:09;5.55;;;2.00;;
54261;SDS011;40174;52.364;6.452;2023-07-31T11:15:36;7.07;;;2.00;;
54261;SDS011;40174;52.364;6.452;2023-07-31T11:18:03;4.03;;;1.95;;
54261;SDS011;40174;52.364;6.452;2023-07-31T11:20:30;4.72;;;1.90;;
54261;SDS011;40174;52.364;6.452;2023-07-31T11:23:00;6.45;;;2.25;;
54261;SDS011;40174;52.364;6.452;2023-07-31T11:25:28;5.22;;;1.88;;
54261;SDS011;40174;52.364;6.452;2023-07-31T11:27:56;4.28;;;2.25;;
54261;SDS011;40174;52.364;6.452;2023-07-31T11:30:23;5.50;;;2.20;;
54261;SDS011;40174;52.364;6.452;2023-07-31T11:32:50;3.85;;;1.95;;
54261;SDS011;40174;52.364;6.452;2023-07-31T11:35:17;8.00;;;2.92;;
54261;SDS011;40174;52.364;6.452;2023-07-31T11:37:44;5.35;;;2.10;;
54261;SDS011;40174;52.364;6.452;2023-07-31T11:40:12;5.70;;;2.70;;
54261;SDS011;40174;52.364;6.452;2023-07-31T11:42:39;9.35;;;3.05;;
54261;SDS011;40174;52.364;6.452;2023-07-31T11:45:07;4.63;;;2.25;;
54261;SDS011;40174;52.364;6.452;2023-07-31T11:47:35;8.05;;;3.00;;
54261;SDS011;40174;52.364;6.452;2023-07-31T11:50:03;5.45;;;2.70;;
54261;SDS011;40174;52.364;6.452;2023-07-31T11:52:31;7.50;;;3.40;;
54261;SDS011;40174;52.364;6.452;2023-07-31T11:55:02;6.68;;;2.88;;
54261;SDS011;40174;52.364;6.452;2023-07-31T11:57:32;6.97;;;2.95;;
54261;SDS011;40174;52.364;6.452;2023-07-31T11:59:59;6.82;;;3.08;;
54261;SDS011;40174;52.364;6.452;2023-07-31T12:02:26;6.85;;;3.05;;
54261;SDS011;40174;52.364;6.452;2023-07-31T12:04:53;4.80;;;2.63;;
54261;SDS011;40174;52.364;6.452;2023-07-31T12:07:20;6.50;;;3.10;;
54261;SDS011;40174;52.364;6.452;2023-07-31T12:09:53;7.13;;;2.58;;
54261;SDS011;40174;52.364;6.452;2023-07-31T12:12:20;7.63;;;3.00;;
54261;SDS011;40174;52.364;6.452;2023-07-31T12:14:48;5.00;;;2.60;;
54261;SDS011;40174;52.364;6.452;2023-07-31T12:17:16;5.30;;;2.80;;
54261;SDS011;40174;52.364;6.452;2023-07-31T12:19:45;5.78;;;3.00;;
54261;SDS011;40174;52.364;6.452;2023-07-31T12:22:12;6.75;;;2.70;;
54261;SDS011;40174;52.364;6.452;2023-07-31T12:24:39;6.03;;;2.80;;
54261;SDS011;40174;52.364;6.452;2023-07-31T12:27:10;5.35;;;2.55;;
54261;SDS011;40174;52.364;6.452;2023-07-31T12:29:37;5.93;;;2.58;;
54261;SDS011;40174;52.364;6.452;2023-07-31T12:32:19;4.43;;;2.22;;
54261;SDS011;40174;52.364;6.452;2023-07-31T12:34:46;8.55;;;3.08;;
54261;SDS011;40174;52.364;6.452;2023-07-31T12:37:13;5.10;;;2.55;;
54261;SDS011;40174;52.364;6.452;2023-07-31T12:39:40;6.75;;;2.42;;
54261;SDS011;40174;52.364;6.452;2023-07-31T12:42:07;4.90;;;2.85;;
54261;SDS011;40174;52.364;6.452;2023-07-31T12:44:34;5.90;;;2.28;;
54261;SDS011;40174;52.364;6.452;2023-07-31T12:47:00;7.30;;;2.40;;
54261;SDS011;40174;52.364;6.452;2023-07-31T12:49:28;4.63;;;2.00;;
54261;SDS011;40174;52.364;6.452;2023-07-31T12:51:55;3.85;;;1.70;;
54261;SDS011;40174;52.364;6.452;2023-07-31T12:54:22;3.72;;;1.60;;
54261;SDS011;40174;52.364;6.452;2023-07-31T12:56:48;5.82;;;2.15;;
54261;SDS011;40174;52.364;6.452;2023-07-31T12:59:15;3.67;;;1.70;;
54261;SDS011;40174;52.364;6.452;2023-07-31T13:01:42;3.78;;;1.60;;
54261;SDS011;40174;52.364;6.452;2023-07-31T13:04:08;3.15;;;1.50;;
54261;SDS011;40174;52.364;6.452;2023-07-31T13:06:36;3.22;;;1.55;;
54261;SDS011;40174;52.364;6.452;2023-07-31T13:09:03;4.78;;;1.80;;
54261;SDS011;40174;52.364;6.452;2023-07-31T13:11:30;4.65;;;1.67;;
54261;SDS011;40174;52.364;6.452;2023-07-31T13:13:57;5.55;;;2.40;;
54261;SDS011;40174;52.364;6.452;2023-07-31T13:16:23;4.13;;;2.03;;
54261;SDS011;40174;52.364;6.452;2023-07-31T13:18:50;4.40;;;1.95;;
54261;SDS011;40174;52.364;6.452;2023-07-31T13:21:18;4.43;;;2.00;;
54261;SDS011;40174;52.364;6.452;2023-07-31T13:23:48;5.35;;;2.70;;
54261;SDS011;40174;52.364;6.452;2023-07-31T13:26:14;5.57;;;2.25;;
54261;SDS011;40174;52.364;6.452;2023-07-31T13:28:41;6.10;;;2.83;;
54261;SDS011;40174;52.364;6.452;2023-07-31T13:31:08;4.97;;;2.40;;
54261;SDS011;40174;52.364;6.452;2023-07-31T13:33:36;8.23;;;2.70;;
54261;SDS011;40174;52.364;6.452;2023-07-31T13:36:03;6.20;;;2.45;;
54261;SDS011;40174;52.364;6.452;2023-07-31T13:38:30;7.45;;;2.83;;
54261;SDS011;40174;52.364;6.452;2023-07-31T13:40:58;4.97;;;2.22;;
54261;SDS011;40174;52.364;6.452;2023-07-31T13:43:24;5.85;;;2.55;;
54261;SDS011;40174;52.364;6.452;2023-07-31T13:45:51;4.22;;;2.30;;
54261;SDS011;40174;52.364;6.452;2023-07-31T13:48:18;7.85;;;3.03;;
54261;SDS011;40174;52.364;6.452;2023-07-31T13:50:44;5.72;;;2.72;;
54261;SDS011;40174;52.364;6.452;2023-07-31T13:53:11;5.88;;;2.45;;
54261;SDS011;40174;52.364;6.452;2023-07-31T13:55:38;5.20;;;2.53;;
54261;SDS011;40174;52.364;6.452;2023-07-31T13:58:05;8.48;;;2.65;;
54261;SDS011;40174;52.364;6.452;2023-07-31T14:00:32;4.57;;;2.40;;
54261;SDS011;40174;52.364;6.452;2023-07-31T14:03:00;4.18;;;1.92;;
54261;SDS011;40174;52.364;6.452;2023-07-31T14:05:27;4.18;;;1.85;;
54261;SDS011;40174;52.364;6.452;2023-07-31T14:07:53;6.53;;;2.67;;
54261;SDS011;40174;52.364;6.452;2023-07-31T14:10:20;4.43;;;2.28;;
54261;SDS011;40174;52.364;6.452;2023-07-31T14:12:47;7.50;;;2.30;;
54261;SDS011;40174;52.364;6.452;2023-07-31T14:15:15;4.57;;;2.17;;
54261;SDS011;40174;52.364;6.452;2023-07-31T14:17:43;6.38;;;2.13;;
54261;SDS011;40174;52.364;6.452;2023-07-31T14:20:10;5.70;;;2.15;;
54261;SDS011;40174;52.364;6.452;2023-07-31T14:22:39;5.65;;;2.35;;
54261;SDS011;40174;52.364;6.452;2023-07-31T14:25:06;4.28;;;2.00;;
54261;SDS011;40174;52.364;6.452;2023-07-31T14:27:35;4.03;;;2.00;;
54261;SDS011;40174;52.364;6.452;2023-07-31T14:30:02;5.57;;;2.40;;
54261;SDS011;40174;52.364;6.452;2023-07-31T14:32:30;4.97;;;2.50;;
54261;SDS011;40174;52.364;6.452;2023-07-31T14:34:57;3.90;;;2.08;;
54261;SDS011;40174;52.364;6.452;2023-07-31T14:37:25;4.40;;;1.98;;
54261;SDS011;40174;52.364;6.452;2023-07-31T14:39:52;7.00;;;2.20;;
54261;SDS011;40174;52.364;6.452;2023-07-31T14:42:19;6.57;;;2.75;;
54261;SDS011;40174;52.364;6.452;2023-07-31T14:44:46;4.82;;;2.22;;
54261;SDS011;40174;52.364;6.452;2023-07-31T14:47:13;4.45;;;2.10;;
54261;SDS011;40174;52.364;6.452;2023-07-31T14:49:41;7.03;;;2.50;;